METAR Data
IDs: Format: Raw Decoded Include TAF

Data at: 2014 UTC 14 Dec 2018

KAFW 141953Z 33020G26KT 10SM -RA OVC014 08/05 A2999 RMK AO2 PK WND 32031/1921 SLP160 P0000 T00780050
KAFW 141853Z 33019G26KT 10SM -RA OVC012 07/04 A2999 RMK AO2 PK WND 33029/1842 SLP161 P0008 T00670044
KAFW 141834Z 33018G26KT 4SM RA BR OVC011 06/04 A3001 RMK AO2 PK WND 33026/1832 P0007 T00610039
KAFW 141753Z 33019KT 3SM -RA BR OVC009 06/04 A3002 RMK AO2 CIG 007V011 SLP171 P0002 60005 T00610039 10061 20050 50007
KAFW 141745Z 32016G22KT 4SM RA BR BKN009 OVC013 06/04 A3002 RMK AO2 P0001 T00610039
KAFW 141740Z 33018KT 5SM -RA BR BKN010 OVC013 06/04 A3002 RMK AO2 P0001 T00610044
KAFW 141727Z 33017G21KT 2SM -RA BR BKN010 OVC014 06/04 A3002 RMK AO2 CIG 007V012 P0000 T00610039
KAFW 141653Z 33017KT 8SM -RA OVC012 06/04 A3003 RMK AO2 PK WND 32027/1633 RAB25 SLP173 P0002 T00560039
KAFW 141553Z 33017KT 10SM OVC014 06/03 A3002 RMK AO2 SLP169 T00560033
KAFW 141453Z 34017G23KT 10SM OVC014 05/03 A3000 RMK AO2 RAB21E43 SLP164 P0001 60001 T00500028 51028
KAFW 141353Z 33018G24KT 7SM OVC013 05/03 A2998 RMK AO2 RAE08 SLP157 P0000 T00500028
KAFW 141303Z 33018KT 6SM -RA BR SCT008 OVC011 05/03 A2995 RMK AO2 P0000 T00500033
KAFW 141253Z 34019G23KT 5SM -RA BR BKN009 OVC013 05/03 A2995 RMK AO2 PK WND 34026/1219 CIG 006V010 SLP147 P0000 T00500033 $
KAFW 141153Z 33019G26KT 3SM -RA BR BKN008 OVC013 06/04 A2991 RMK AO2 PK WND 35026/1144 CIG 005V011 SLP135 P0000 60021 70055 T00560039 10067 20056 51016 $
KAFW 141053Z 33013KT 3SM -RA BR BKN008 OVC012 06/04 A2990 RMK AO2 CIG 005V011 SLP128 P0002 T00610044 $
KAFW 141011Z 34012KT 3SM -RA BR BKN008 OVC014 06/04 A2989 RMK AO2 P0002 T00610044 $
KAFW 140953Z 34014KT 3SM RA BR BKN010 OVC015 06/04 A2989 RMK AO2 CIG 006V012 SLP124 P0008 T00610044 $
KAFW 140853Z 33014KT 4SM RA BR BKN012 OVC017 07/05 A2987 RMK AO2 SLP117 P0007 60011 T00670050 53009 $
KAFW 140836Z 34014KT 4SM RA BR BKN010 OVC015 07/05 A2986 RMK AO2 P0004 T00670050 $
KAFW 140753Z 33011KT 4SM -RA BR BKN009 OVC014 07/05 A2985 RMK AO2 CIG 005V012 SLP110 P0001 T00670050 $
KAFW 140729Z 34010KT 4SM -RA BR OVC007 07/05 A2985 RMK AO2 P0001 T00670050 $
KAFW 140653Z 35011KT 4SM -RA BR SCT010 OVC015 07/05 A2984 RMK AO2 SLP105 P0003 T00670050 $
KAFW 140553Z 36014KT 5SM -RA BR SCT012 OVC018 07/05 A2984 RMK AO2 RAEMMB41 TSB07E38 SLP103 TS DSIPTD P0007 60031 T00670050 10078 20067 401780067 53012 $
KAFW 140538Z COR 35014KT 3SM BR SCT010 OVC015 07/05 A2984 RMK AO2 RAEMM TSB07E38 TS DSIPTD P0005 T00670050
KAFW 140507Z 36014G20KT 4SM -TSRA BR BKN013CB OVC022 07/05 A2983 RMK AO2 TSB07 OCNL LTGIC N TS N MOV SW P0000 T00670050
KAFW 140505Z 36014G20KT 4SM VCTS -RA BR BKN013 OVC022 07/05 A2983 RMK AO2 P0000 T00670050
KAFW 140453Z 36014KT 7SM -RA BKN013 OVC020 07/05 A2982 RMK AO2 SLP097 P0016 T00670050
KAFW 140446Z 36016KT 1 3/4SM +RA BR OVC011 07/05 A2982 RMK AO2 P0015 T00670050
KAFW 140443Z 36015KT 2SM +RA BR OVC011 07/05 A2982 RMK AO2 P0012 T00670050
KAFW 140353Z 35016G23KT 5SM -RA BR BKN011 OVC018 07/05 A2982 RMK AO2 PK WND 36030/0317 RAB0254 SLP097 P0006 T00670050
KAFW 140253Z 01018G27KT 10SM OVC011 07/05 A2980 RMK AO2 PK WND 01027/0244 SLP092 VCSH N 60002 T00720050 53011
KAFW 140153Z 36015KT 10SM OVC014 07/04 A2978 RMK AO2 RAE30 SLP084 P0001 T00720044
KAFW 140053Z 01014G21KT 10SM -RA OVC014 07/04 A2978 RMK AO2 LTG DSNT NW RAB2356 SLP084 OCNL LTGIC DSNT NW CB DSNT NW MOV W P0001 T00720044
KAFW 132353Z 36009KT 10SM OVC014 08/04 A2977 RMK AO2 PK WND 36029/2301 SLP081 60000 T00780039 10178 20078 53036
KAFW 132253Z 36019KT 10SM OVC012 08/04 A2972 RMK AO2 SLP062 T00830044
KAFW 132153Z 34019KT 10SM OVC012 09/06 A2971 RMK AO2 PK WND 35029/2054 SLP059 CB DSNT NE MOV N T00890056
KAFW 132117Z 34019KT 10SM OVC010 09/06 A2969 RMK AO2 PK WND 35029/2054 CB DSNT NE-E MOV N T00940061
KAFW 132053Z 34021G28KT 10SM OVC008 10/07 A2966 RMK AO2 PK WND 35028/2050 LTG DSNT NE RAB26E34 SLP042 CB DSNT NE-E MOV N P0000 60000 T01000072 53001
KAFW 132031Z 32018KT 10SM -RA BKN008 BKN012 OVC026 11/08 A2965 RMK AO2 LTG DSNT NE AND E RAB26 CB DSNT NE-E MOV N P0000 T01110083
KAFW 132022Z 32019KT 10SM SCT008 BKN011 OVC026 12/09 A2964 RMK AO2 LTG DSNT N-E CB DSNT NE-E MOV N T01170089
KAFW 131953Z 30010KT 10SM OVC029 16/11 A2963 RMK AO2 LTG DSNT NE AND E RAB27E47 SLP030 CB DSNT NE-E MOV N P0000 T01610111
KAFW 131853Z 27006KT 10SM BKN027 OVC034 17/11 A2964 RMK AO2 LTG DSNT E SLP033 CB DSNT E MOV N T01720111
KAFW 131826Z 23007KT 10SM BKN026 BKN034 OVC085 17/11 A2966 RMK AO2 T01720111
KAFW 131753Z 21006KT 10SM SCT035 BKN085 OVC100 18/12 A2966 RMK AO2 SLP038 60003 T01780117 10178 20150 58012
KAFW 131653Z 18010KT 10SM SCT030 OVC040 17/13 A2968 RMK AO2 SLP046 T01720133
KAFW 131553Z 17008KT 8SM SCT022 BKN039 BKN090 BKN250 16/14 A2969 RMK AO2 SLP050 T01610139
KAFW 131458Z 18008KT 7SM SCT010 BKN022 BKN100 BKN250 16/14 A2970 RMK AO2 T01560144
KAFW 131453Z 19007KT 7SM FEW011 SCT022 BKN100 BKN250 16/14 A2969 RMK AO2 RAE03 SLP051 P0000 60003 T01610144 51018
KAFW 131353Z 15010KT 6SM -RA BR SCT016 BKN090 BKN120 BKN250 15/13 A2968 RMK AO2 LTG DSNT NE SLP046 P0003 T01500133
KAFW 131253Z 18009KT 10SM FEW015 SCT100 BKN130 15/13 A2966 RMK AO2 LTG DSNT W SLP039 T01500128
KAFW 131153Z 18011KT 10SM SCT110 15/13 A2964 RMK AO2 SLP033 60000 T01500128 10161 20144 56025
KAFW 131053Z 19016KT 10SM OVC095 16/13 A2965 RMK AO2 SLP036 T01560133
KAFW 131008Z COR 18012KT 10SM SCT012 OVC095 16/13 A2966 RMK AO2 T01560133
KAFW 130953Z 18012KT 10SM BKN015 OVC100 16/13 A2967 RMK AO2 RAB30E41 SLP043 P0000 T01560133
KAFW 130853Z 17012KT 10SM BKN015 OVC120 15/13 A2971 RMK AO2 SLP058 60000 T01500128 58011
KAFW 130833Z 17012KT 10SM BKN015 OVC100 14/13 A2972 RMK AO2 T01440128